Time;durP1;ratioP1;P1;durP2;ratioP2;P2;SDS_P1;SDS_P2;PMS_P1;PMS_P2;Temp;Humidity;BMP_temperature;BMP_pressure;BME280_temperature;BME280_humidity;BME280_pressure;Samples;Min_cycle;Max_cycle;Signal;HPM_P1;HPM_P2
2021/06/09 00:00:40;;;;;;;10.07;9.27;;;18.20;99.90;;;;;;5049676;28;20233;-84
2021/06/09 00:03:06;;;;;;;10.05;9.15;;;18.10;99.90;;;;;;5033903;28;20279;-84
2021/06/09 00:05:31;;;;;;;10.65;9.57;;;18.10;99.90;;;;;;5034089;28;20210;-84
2021/06/09 00:07:57;;;;;;;9.98;9.07;;;18.00;99.90;;;;;;5034157;28;20236;-84
2021/06/09 00:10:23;;;;;;;10.43;9.45;;;17.90;99.90;;;;;;5032775;28;20179;-84
2021/06/09 00:29:35;;;;;;;12.50;9.85;;;18.30;99.90;;;;;;5033252;28;20200;-84
2021/06/09 00:32:01;;;;;;;15.68;10.07;;;18.20;99.90;;;;;;5033386;28;20265;-84
2021/06/09 00:34:27;;;;;;;11.02;9.77;;;18.20;99.90;;;;;;5034436;28;20175;-84
2021/06/09 00:36:52;;;;;;;14.43;10.45;;;18.10;99.90;;;;;;5032547;28;20211;-85
2021/06/09 00:39:18;;;;;;;13.73;10.85;;;18.00;99.90;;;;;;5049112;28;20164;-85
2021/06/09 00:41:44;;;;;;;11.02;10.02;;;18.00;99.90;;;;;;5032219;28;20160;-84
2021/06/09 00:44:10;;;;;;;12.43;11.32;;;18.00;99.90;;;;;;5033780;28;20159;-84
2021/06/09 00:46:39;;;;;;;15.38;12.00;;;17.90;99.90;;;;;;5033661;28;20271;-84
2021/06/09 00:49:05;;;;;;;12.95;11.85;;;17.90;99.90;;;;;;5032048;28;20171;-85
2021/06/09 00:51:31;;;;;;;13.80;12.27;;;17.80;99.90;;;;;;5033609;28;20202;-85
2021/06/09 00:54:01;;;;;;;20.63;12.52;;;17.70;99.90;;;;;;5032791;28;20243;-85
2021/06/09 00:56:28;;;;;;;25.17;12.15;;;17.60;99.90;;;;;;5053315;28;20209;-83
2021/06/09 00:58:54;;;;;;;13.52;12.32;;;17.60;99.90;;;;;;5051826;28;20167;-83
2021/06/09 01:01:23;;;;;;;15.25;13.05;;;17.70;99.90;;;;;;5033028;28;20259;-83
2021/06/09 01:03:50;;;;;;;13.93;12.68;;;17.60;99.90;;;;;;5032007;28;20213;-83
2021/06/09 01:06:16;;;;;;;15.48;12.85;;;17.60;99.90;;;;;;5052482;28;20182;-83
2021/06/09 01:08:43;;;;;;;15.65;11.75;;;17.60;99.90;;;;;;5053452;28;20163;-86
2021/06/09 01:11:24;;;;;;;15.75;13.00;;;17.50;99.90;;;;;;5037243;28;20191;-86
2021/06/09 01:13:50;;;;;;;18.98;14.63;;;17.50;99.90;;;;;;5033700;28;20195;-86
2021/06/09 01:16:17;;;;;;;16.88;15.43;;;17.50;99.90;;;;;;5051155;28;20167;-85
2021/06/09 01:18:43;;;;;;;15.13;13.65;;;17.40;99.90;;;;;;5052200;28;20175;-86
2021/06/09 01:21:09;;;;;;;16.55;14.68;;;17.40;99.90;;;;;;5052756;28;20194;-86
2021/06/09 01:23:35;;;;;;;14.15;12.73;;;17.30;99.90;;;;;;5027196;28;20179;-86
2021/06/09 01:26:01;;;;;;;17.50;14.63;;;17.30;99.90;;;;;;5050085;28;20631;-86
2021/06/09 01:28:28;;;;;;;15.65;14.15;;;17.20;99.90;;;;;;5052227;28;20176;-86
2021/06/09 01:30:55;;;;;;;17.83;15.93;;;17.20;99.90;;;;;;5053141;28;20683;-86
2021/06/09 01:33:21;;;;;;;19.35;17.33;;;17.20;99.90;;;;;;5033661;28;20259;-86
2021/06/09 01:35:50;;;;;;;21.25;17.27;;;17.10;99.90;;;;;;5046452;28;20221;-86
2021/06/09 01:38:17;;;;;;;20.00;17.75;;;17.10;99.90;;;;;;5052852;28;20164;-86
2021/06/09 01:40:42;;;;;;;21.98;18.95;;;17.10;99.90;;;;;;5050798;28;20258;-86
2021/06/09 01:43:08;;;;;;;27.50;21.80;;;17.00;99.90;;;;;;5028121;28;20270;-86
2021/06/09 01:45:36;;;;;;;27.17;20.63;;;17.00;99.90;;;;;;5036463;28;20187;-86
2021/06/09 01:48:03;;;;;;;29.73;18.52;;;17.10;99.90;;;;;;5051362;28;20179;-86
2021/06/09 01:50:30;;;;;;;24.48;17.33;;;17.00;99.90;;;;;;5052386;28;20168;-86
2021/06/09 01:53:02;;;;;;;18.95;16.98;;;17.00;99.90;;;;;;5048547;28;20204;-86
2021/06/09 01:55:29;;;;;;;24.58;19.35;;;16.90;99.90;;;;;;5036924;28;20172;-86
2021/06/09 01:57:55;;;;;;;23.63;19.52;;;16.90;99.90;;;;;;5056782;28;20258;-85
2021/06/09 02:00:43;;;;;;;26.25;19.65;;;16.90;99.90;;;;;;5071934;28;20266;-86
2021/06/09 02:03:11;;;;;;;20.33;18.23;;;16.90;99.90;;;;;;5051910;28;20163;-86
2021/06/09 02:05:37;;;;;;;22.33;19.73;;;16.90;99.90;;;;;;5038478;28;20171;-86
2021/06/09 02:08:10;;;;;;;29.38;23.92;;;16.90;99.90;;;;;;5038727;28;20557;-86
2021/06/09 02:10:37;;;;;;;38.70;24.85;;;16.80;99.90;;;;;;5056529;28;20221;-86
2021/06/09 02:13:06;;;;;;;38.63;24.83;;;16.80;99.90;;;;;;5051396;28;20172;-86
2021/06/09 02:15:32;;;;;;;34.15;26.95;;;16.70;99.90;;;;;;5050868;28;20616;-86
2021/06/09 02:18:21;;;;;;;32.85;26.10;;;16.60;99.90;;;;;;5055257;28;20170;-86
2021/06/09 02:20:51;;;;;;;32.85;25.55;;;16.70;99.90;;;;;;5055600;28;20179;-86
2021/06/09 02:23:22;;;;;;;29.40;23.75;;;16.70;99.90;;;;;;5049844;28;20164;-86
2021/06/09 02:25:50;;;;;;;25.23;22.58;;;16.70;99.90;;;;;;5054010;28;20176;-86
2021/06/09 02:28:18;;;;;;;31.00;22.98;;;16.80;99.90;;;;;;5056187;28;20195;-86
2021/06/09 02:30:46;;;;;;;38.17;26.38;;;16.70;99.90;;;;;;5055872;28;20215;-86
2021/06/09 02:33:14;;;;;;;30.33;25.00;;;16.70;99.90;;;;;;5051049;28;20168;-86
2021/06/09 02:35:43;;;;;;;28.20;22.02;;;16.70;99.90;;;;;;5051024;28;20616;-86
2021/06/09 02:38:10;;;;;;;29.65;23.90;;;16.60;99.90;;;;;;5055897;28;20201;-86
2021/06/09 02:40:38;;;;;;;41.67;27.17;;;16.60;99.90;;;;;;5055622;28;20160;-86
2021/06/09 02:43:05;;;;;;;39.88;29.80;;;16.60;99.90;;;;;;5050460;28;20171;-86
2021/06/09 02:45:31;;;;;;;33.55;26.60;;;16.60;99.90;;;;;;5036256;28;20254;-86
2021/06/09 02:48:07;;;;;;;33.00;26.15;;;16.60;99.90;;;;;;5034572;28;20168;-86
2021/06/09 02:50:33;;;;;;;43.22;29.73;;;16.60;99.90;;;;;;5034759;28;20170;-86
2021/06/09 02:53:02;;;;;;;46.92;31.40;;;16.50;99.90;;;;;;5036987;28;20557;-85
2021/06/09 02:56:05;;;;;;;35.35;26.08;;;16.50;99.90;;;;;;5040904;28;20252;-86
2021/06/09 02:58:42;;;;;;;30.98;24.83;;;16.50;99.90;;;;;;5047764;28;20172;-86
2021/06/09 03:01:27;;;;;;;38.28;25.83;;;16.50;99.90;;;;;;5066031;28;20258;-86
2021/06/09 03:04:10;;;;;;;30.02;23.10;;;16.50;99.90;;;;;;5060874;28;20651;-86
2021/06/09 03:07:01;;;;;;;35.60;24.58;;;16.50;99.90;;;;;;5034569;28;20164;-86
2021/06/09 03:09:33;;;;;;;33.88;27.05;;;16.40;99.90;;;;;;5033757;28;20530;-86
2021/06/09 03:12:37;;;;;;;43.50;30.88;;;16.40;99.90;;;;;;5064079;28;20195;-86
2021/06/09 03:15:13;;;;;;;44.88;31.60;;;16.40;99.90;;;;;;5026747;28;20185;-86
2021/06/09 03:17:52;;;;;;;35.15;24.77;;;16.40;99.90;;;;;;5035503;28;20185;-86
2021/06/09 03:20:45;;;;;;;55.95;37.03;;;16.40;99.90;;;;;;5035079;28;20256;-85
2021/06/09 03:23:16;;;;;;;57.03;38.40;;;16.30;99.90;;;;;;5051157;28;20164;-86
2021/06/09 03:26:18;;;;;;;53.63;36.90;;;16.20;99.90;;;;;;5034440;28;20168;-85
2021/06/09 03:28:52;;;;;;;48.67;33.75;;;16.20;99.90;;;;;;5032958;28;20178;-86
2021/06/09 03:31:26;;;;;;;42.10;28.42;;;16.20;99.90;;;;;;5057422;28;20241;-86
2021/06/09 03:33:54;;;;;;;47.75;33.67;;;16.20;99.90;;;;;;5040848;28;20171;-86
2021/06/09 03:36:24;;;;;;;49.67;35.25;;;16.10;99.90;;;;;;5035078;28;20179;-86
2021/06/09 03:39:04;;;;;;;44.38;29.73;;;16.10;99.90;;;;;;5033796;28;20262;-87
2021/06/09 03:41:41;;;;;;;31.35;26.13;;;16.10;99.90;;;;;;5042743;28;20171;-87
2021/06/09 03:44:08;;;;;;;35.47;25.67;;;16.10;99.90;;;;;;5040485;28;20267;-86
2021/06/09 03:46:37;;;;;;;31.35;24.30;;;16.00;99.90;;;;;;5034659;28;20639;-86
2021/06/09 03:49:08;;;;;;;33.35;24.83;;;16.00;99.90;;;;;;5033725;28;20174;-86
2021/06/09 03:51:41;;;;;;;55.97;36.63;;;16.10;99.90;;;;;;5042639;28;20205;-86
2021/06/09 03:54:07;;;;;;;77.45;47.70;;;16.10;99.90;;;;;;5038329;28;20176;-86
2021/06/09 03:56:35;;;;;;;92.70;56.13;;;16.20;99.90;;;;;;5034767;28;20168;-86
2021/06/09 03:59:03;;;;;;;83.03;53.72;;;16.30;99.90;;;;;;5017144;28;20532;-86
2021/06/09 04:01:31;;;;;;;63.35;42.83;;;16.50;99.90;;;;;;5041384;28;20647;-86
2021/06/09 04:03:58;;;;;;;42.08;28.30;;;16.60;99.90;;;;;;5039546;28;20184;-86
2021/06/09 04:06:25;;;;;;;33.85;25.52;;;16.60;99.90;;;;;;5034433;28;20165;-86
2021/06/09 04:08:52;;;;;;;32.25;25.02;;;16.60;99.90;;;;;;5033489;28;20515;-87
2021/06/09 04:11:20;;;;;;;40.55;24.75;;;16.70;99.90;;;;;;5040754;28;20199;-86
2021/06/09 04:13:47;;;;;;;35.90;22.88;;;16.80;99.90;;;;;;5053997;28;20160;-86
2021/06/09 04:16:14;;;;;;;32.92;24.92;;;16.90;99.90;;;;;;5016984;28;20164;-87
2021/06/09 04:18:44;;;;;;;39.97;24.27;;;16.90;99.90;;;;;;5033853;28;20179;-87
2021/06/09 04:21:11;;;;;;;34.78;25.50;;;17.00;99.90;;;;;;5038996;28;20180;-87
2021/06/09 04:23:37;;;;;;;33.10;24.50;;;17.10;99.90;;;;;;5038775;28;20176;-86
2021/06/09 04:26:06;;;;;;;31.40;26.45;;;17.20;99.90;;;;;;5032925;28;20164;-86
2021/06/09 04:28:33;;;;;;;41.38;28.42;;;17.30;99.90;;;;;;5033985;28;20192;-86
2021/06/09 04:30:59;;;;;;;47.45;32.65;;;17.30;99.90;;;;;;5035038;28;20565;-86
2021/06/09 04:33:29;;;;;;;50.92;37.15;;;17.20;99.90;;;;;;5040748;28;20229;-87
2021/06/09 04:35:55;;;;;;;53.85;37.38;;;17.20;99.90;;;;;;5034257;28;20162;-86
2021/06/09 04:38:20;;;;;;;61.90;39.33;;;17.20;99.90;;;;;;5034109;28;20621;-86
2021/06/09 04:40:49;;;;;;;60.88;40.53;;;17.30;99.90;;;;;;5032728;28;20160;-86
2021/06/09 04:43:15;;;;;;;50.17;37.25;;;17.50;99.90;;;;;;5042584;28;20623;-86
2021/06/09 04:45:41;;;;;;;60.00;40.63;;;17.70;99.90;;;;;;5032605;28;20164;-87
2021/06/09 04:48:15;;;;;;;51.95;36.33;;;17.80;99.90;;;;;;5032926;28;20528;-87
2021/06/09 04:50:44;;;;;;;52.80;39.08;;;18.10;99.90;;;;;;5033881;28;20535;-87
2021/06/09 04:53:10;;;;;;;52.55;38.55;;;18.40;99.90;;;;;;5042185;28;20234;-86
2021/06/09 04:56:00;;;;;;;46.75;35.17;;;18.60;99.90;;;;;;5034058;28;20160;-87
2021/06/09 04:58:26;;;;;;;49.45;33.22;;;18.80;99.90;;;;;;5031925;28;20283;-87
2021/06/09 05:00:52;;;;;;;47.30;35.78;;;19.10;99.90;;;;;;5032497;28;20652;-87
2021/06/09 05:03:18;;;;;;;48.47;31.98;;;19.30;99.90;;;;;;5041088;28;20172;-87
2021/06/09 05:05:44;;;;;;;50.25;36.15;;;19.40;99.90;;;;;;5033775;28;20171;-87
2021/06/09 05:08:10;;;;;;;54.28;38.42;;;19.60;99.90;;;;;;5033939;28;20159;-87
2021/06/09 05:10:40;;;;;;;50.83;37.10;;;19.80;99.90;;;;;;5033301;28;20503;-87
2021/06/09 05:13:18;;;;;;;47.47;35.70;;;20.10;99.90;;;;;;5048332;28;20179;-87
2021/06/09 05:15:51;;;;;;;47.17;34.25;;;20.60;99.90;;;;;;5052558;28;20167;-87
2021/06/09 05:18:21;;;;;;;45.45;35.08;;;21.00;99.90;;;;;;5053739;28;20160;-87
2021/06/09 05:20:49;;;;;;;48.78;36.40;;;21.50;99.90;;;;;;5052292;28;20178;-88
2021/06/09 05:23:16;;;;;;;47.30;35.58;;;21.90;99.90;;;;;;5045873;28;20492;-87
2021/06/09 05:25:43;;;;;;;58.50;38.13;;;22.20;99.90;;;;;;5052926;28;20196;-87
2021/06/09 05:28:12;;;;;;;57.70;37.83;;;22.50;99.90;;;;;;5052242;28;20628;-87
2021/06/09 05:30:39;;;;;;;49.22;37.22;;;22.70;99.90;;;;;;5055374;28;20569;-87
2021/06/09 05:33:07;;;;;;;47.80;35.00;;;22.90;99.90;;;;;;5052242;28;20659;-87
2021/06/09 05:35:33;;;;;;;54.28;36.53;;;23.00;99.90;;;;;;5078856;28;20221;-87
2021/06/09 05:38:00;;;;;;;51.10;36.30;;;23.30;99.90;;;;;;5071283;28;20167;-87
2021/06/09 05:40:26;;;;;;;45.53;35.33;;;23.70;99.90;;;;;;5065340;28;20189;-87
2021/06/09 05:42:51;;;;;;;47.03;37.10;;;24.10;99.90;;;;;;5050814;28;20183;-87
2021/06/09 05:45:28;;;;;;;45.35;35.47;;;24.70;99.90;;;;;;5072774;28;20159;-87
2021/06/09 05:47:54;;;;;;;39.03;30.98;;;25.00;99.90;;;;;;5072567;28;20171;-87
2021/06/09 05:50:23;;;;;;;43.45;33.63;;;25.30;99.90;;;;;;5064562;28;20182;-87
2021/06/09 05:52:52;;;;;;;39.83;31.63;;;25.60;99.90;;;;;;5061249;28;20202;-88
2021/06/09 05:55:21;;;;;;;43.17;32.65;;;26.00;99.90;;;;;;5069775;28;20178;-88
2021/06/09 05:57:48;;;;;;;39.50;33.65;;;26.30;99.90;;;;;;5067781;28;20176;-87
2021/06/09 06:00:15;;;;;;;61.30;35.22;;;26.50;99.90;;;;;;5067450;28;20202;-87
2021/06/09 06:02:41;;;;;;;50.28;32.47;;;26.90;99.90;;;;;;5056171;28;20194;-88
2021/06/09 06:05:08;;;;;;;45.05;35.47;;;27.40;99.90;;;;;;5035974;28;20196;-87
2021/06/09 06:07:36;;;;;;;50.63;35.60;;;27.50;99.90;;;;;;5019041;28;20164;-87
2021/06/09 06:10:04;;;;;;;52.28;33.40;;;27.50;99.90;;;;;;5036887;28;20564;-88
2021/06/09 06:12:32;;;;;;;50.95;37.83;;;27.40;99.90;;;;;;5038474;28;20603;-87
2021/06/09 06:14:58;;;;;;;49.55;34.78;;;27.30;99.90;;;;;;5037429;28;20723;-87
2021/06/09 06:17:24;;;;;;;52.42;35.83;;;27.30;99.90;;;;;;5036335;28;20167;-85
2021/06/09 06:19:50;;;;;;;47.25;34.47;;;27.60;99.90;;;;;;5036127;28;20164;-84
2021/06/09 06:22:17;;;;;;;45.15;33.45;;;28.10;99.90;;;;;;5036944;28;20176;-84
2021/06/09 06:24:46;;;;;;;40.88;31.23;;;28.80;99.90;;;;;;5052259;28;20220;-86
2021/06/09 06:27:13;;;;;;;42.08;31.60;;;29.60;99.90;;;;;;5056070;28;20159;-84
2021/06/09 06:29:40;;;;;;;47.08;30.50;;;30.30;99.90;;;;;;5037717;28;20179;-85
2021/06/09 06:32:08;;;;;;;32.97;28.67;;;30.60;99.90;;;;;;5055256;28;20207;-83
2021/06/09 06:34:39;;;;;;;33.25;26.55;;;30.90;99.90;;;;;;5052137;28;20174;-85
2021/06/09 06:37:07;;;;;;;35.65;26.60;;;31.20;99.90;;;;;;5054566;28;20183;-86
2021/06/09 06:39:34;;;;;;;33.92;24.85;;;31.50;98.50;;;;;;5052761;28;20667;-84
2021/06/09 06:42:00;;;;;;;34.20;26.48;;;32.00;97.90;;;;;;5055309;28;20321;-85
2021/06/09 06:44:26;;;;;;;32.83;25.55;;;32.40;97.00;;;;;;5048554;28;20266;-85
2021/06/09 06:46:51;;;;;;;31.95;26.33;;;32.90;96.30;;;;;;5034722;28;20264;-87
2021/06/09 06:49:18;;;;;;;33.00;26.98;;;33.20;95.40;;;;;;5035928;28;20163;-86
2021/06/09 06:51:50;;;;;;;34.92;26.52;;;33.20;94.20;;;;;;5052276;28;20235;-88
2021/06/09 06:54:20;;;;;;;37.45;27.77;;;33.20;94.50;;;;;;5054556;28;20159;-83
2021/06/09 06:56:49;;;;;;;34.00;27.90;;;33.60;92.80;;;;;;5015289;28;20251;-84
2021/06/09 06:59:15;;;;;;;32.50;27.48;;;33.50;92.60;;;;;;5015688;28;20251;-84
2021/06/09 07:01:41;;;;;;;29.33;26.15;;;33.70;92.90;;;;;;5031453;28;20437;-82
2021/06/09 07:04:08;;;;;;;33.20;26.33;;;33.60;92.80;;;;;;5034681;28;20402;-82
2021/06/09 07:06:34;;;;;;;30.50;24.60;;;33.70;91.40;;;;;;5032838;28;20724;-83
2021/06/09 07:09:02;;;;;;;32.40;24.48;;;34.00;92.60;;;;;;5038505;28;20725;-83
2021/06/09 07:11:28;;;;;;;26.77;23.90;;;34.70;91.10;;;;;;5069603;28;20202;-83
2021/06/09 07:13:56;;;;;;;25.70;22.98;;;35.40;90.10;;;;;;5054347;28;20685;-83
2021/06/09 07:16:27;;;;;;;27.85;22.75;;;35.50;89.60;;;;;;5054780;28;20198;-83
2021/06/09 07:18:53;;;;;;;25.52;22.77;;;35.40;88.20;;;;;;5048407;28;20624;-83
2021/06/09 07:21:22;;;;;;;30.95;24.00;;;35.80;88.30;;;;;;5034436;28;20182;-84
2021/06/09 07:23:49;;;;;;;24.05;20.02;;;36.40;86.20;;;;;;5053524;28;20182;-83
2021/06/09 07:26:16;;;;;;;25.98;23.17;;;36.50;85.70;;;;;;5054598;28;20170;-87
2021/06/09 07:28:48;;;;;;;33.47;22.30;;;36.90;84.80;;;;;;5035703;28;20586;-84
2021/06/09 07:31:16;;;;;;;28.75;22.38;;;36.70;83.80;;;;;;5034424;28;20203;-84
2021/06/09 07:33:45;;;;;;;25.15;22.45;;;37.00;82.60;;;;;;5033524;28;20164;-84
2021/06/09 07:36:13;;;;;;;29.17;23.00;;;37.00;80.90;;;;;;5034649;28;20255;-84
2021/06/09 07:38:49;;;;;;;28.50;22.27;;;36.90;80.60;;;;;;5033011;28;20201;-84
2021/06/09 07:41:16;;;;;;;25.88;19.85;;;36.90;80.80;;;;;;5054514;28;20171;-84
2021/06/09 07:43:44;;;;;;;20.15;15.10;;;37.60;79.50;;;;;;5053498;28;20166;-84
2021/06/09 07:46:15;;;;;;;23.20;16.00;;;38.30;74.90;;;;;;5054245;28;20163;-84
2021/06/09 07:48:45;;;;;;;22.42;14.77;;;39.20;74.90;;;;;;5037400;28;20205;-84
2021/06/09 07:51:12;;;;;;;13.82;11.60;;;40.00;72.40;;;;;;5032730;28;20211;-84
2021/06/09 07:53:45;;;;;;;17.30;13.10;;;40.20;71.60;;;;;;5032436;28;20590;-83
2021/06/09 07:56:15;;;;;;;12.70;11.35;;;40.40;69.90;;;;;;5043143;28;20170;-83
2021/06/09 07:58:41;;;;;;;20.42;12.18;;;40.40;69.10;;;;;;5052935;28;20166;-83
2021/06/09 08:01:08;;;;;;;14.10;11.23;;;40.20;71.30;;;;;;5053475;28;20501;-83
2021/06/09 08:03:36;;;;;;;15.48;10.68;;;39.70;71.60;;;;;;5052561;28;20193;-85
2021/06/09 08:06:02;;;;;;;18.60;11.15;;;39.40;69.50;;;;;;5046618;28;20202;-84
2021/06/09 08:08:29;;;;;;;13.23;10.57;;;39.40;67.80;;;;;;5032901;28;20191;-85
2021/06/09 08:10:55;;;;;;;17.98;10.57;;;40.20;67.90;;;;;;5034362;28;20176;-84
2021/06/09 08:13:21;;;;;;;15.73;10.63;;;40.80;66.50;;;;;;5032718;28;20194;-84
2021/06/09 08:15:47;;;;;;;23.33;11.05;;;41.20;66.50;;;;;;5040495;28;20172;-84
2021/06/09 08:18:13;;;;;;;12.50;10.73;;;41.70;64.50;;;;;;5032538;28;20221;-85
2021/06/09 08:21:06;;;;;;;15.05;7.35;;;42.20;63.20;;;;;;5033686;28;20160;-84
2021/06/09 08:23:34;;;;;;;12.00;10.77;;;41.50;66.40;;;;;;5033820;28;20213;-84
2021/06/09 08:26:00;;;;;;;11.63;10.40;;;41.20;65.50;;;;;;5045586;28;20220;-84
2021/06/09 08:28:28;;;;;;;15.27;10.32;;;41.30;64.40;;;;;;5053311;28;20611;-85
2021/06/09 08:30:54;;;;;;;10.25;9.35;;;41.20;65.90;;;;;;5052027;28;20525;-85
2021/06/09 08:33:20;;;;;;;12.60;9.80;;;40.70;67.50;;;;;;5066082;28;20166;-85
2021/06/09 08:35:46;;;;;;;9.60;7.60;;;40.90;64.60;;;;;;5012695;28;20233;-80
2021/06/09 08:38:11;;;;;;;15.10;9.02;;;41.20;65.10;;;;;;5045480;28;20172;-82
2021/06/09 08:40:37;;;;;;;8.90;8.10;;;40.80;66.60;;;;;;5029962;28;20198;-81
2021/06/09 08:43:04;;;;;;;14.10;7.95;;;40.60;65.70;;;;;;5033307;28;20245;-89
2021/06/09 08:45:31;;;;;;;8.02;7.20;;;40.50;64.60;;;;;;5076524;28;20171;-96
2021/06/09 08:47:58;;;;;;;10.80;8.52;;;40.10;65.50;;;;;;5060962;28;20158;-96
2021/06/09 08:50:25;;;;;;;8.90;8.00;;;40.10;64.90;;;;;;5053955;28;20245;-84
2021/06/09 08:52:52;;;;;;;8.07;7.22;;;41.00;64.40;;;;;;5035410;28;20679;-79
2021/06/09 08:55:19;;;;;;;8.15;7.10;;;42.20;64.60;;;;;;5035213;28;20576;-87
2021/06/09 08:57:45;;;;;;;10.90;7.43;;;43.30;62.50;;;;;;5032864;28;20608;-89
2021/06/09 09:00:15;;;;;;;46.08;9.00;;;41.80;60.30;;;;;;5033181;28;20176;-83
2021/06/09 09:02:40;;;;;;;8.23;7.40;;;41.90;61.20;;;;;;5032146;28;20173;-86
2021/06/09 09:05:10;;;;;;;9.13;6.80;;;42.20;61.20;;;;;;5068239;28;20608;-83
2021/06/09 09:07:36;;;;;;;20.08;7.10;;;42.30;61.00;;;;;;5036072;28;20649;-83
2021/06/09 09:10:05;;;;;;;9.32;6.50;;;42.20;61.50;;;;;;5037245;28;20187;-84
2021/06/09 09:12:33;;;;;;;17.58;6.20;;;41.90;60.00;;;;;;5044084;28;20203;-84
2021/06/09 09:14:59;;;;;;;7.90;5.95;;;41.90;60.20;;;;;;5056238;28;20252;-84
2021/06/09 09:17:25;;;;;;;8.95;6.10;;;41.30;63.00;;;;;;5057363;28;20169;-84
2021/06/09 09:19:51;;;;;;;9.20;6.15;;;40.50;63.60;;;;;;5057145;28;20163;-85
2021/06/09 09:22:21;;;;;;;8.95;6.60;;;40.10;63.10;;;;;;5050784;28;20179;-86
2021/06/09 09:24:50;;;;;;;7.95;6.70;;;40.60;62.60;;;;;;5036774;28;20203;-85
2021/06/09 09:27:50;;;;;;;6.28;5.60;;;40.90;61.50;;;;;;5019463;28;20163;-88
2021/06/09 09:30:13;;;;;;;7.68;5.40;;;41.70;60.60;;;;;;5033897;28;20282;-85
2021/06/09 09:33:15;;;;;;;6.68;6.03;;;41.80;60.60;;;;;;5037130;28;20521;-84
2021/06/09 09:35:44;;;;;;;8.90;5.97;;;41.20;60.40;;;;;;5035567;28;20163;-86
2021/06/09 09:38:20;;;;;;;7.72;6.13;;;41.60;61.60;;;;;;5031684;28;20203;-82
2021/06/09 09:41:10;;;;;;;9.15;5.75;;;40.60;60.60;;;;;;5030142;28;20170;-84
2021/06/09 09:43:54;;;;;;;46.90;6.75;;;41.80;60.30;;;;;;5036557;28;20174;-84
2021/06/09 09:46:31;;;;;;;7.70;4.93;;;42.30;60.50;;;;;;5036396;28;20620;-83
2021/06/09 09:49:06;;;;;;;8.10;5.13;;;43.50;60.90;;;;;;5036490;28;20169;-85
2021/06/09 09:51:55;;;;;;;13.32;4.57;;;43.30;59.60;;;;;;5051600;28;20195;-85
2021/06/09 09:54:33;;;;;;;5.82;4.80;;;43.80;59.60;;;;;;5017078;28;20190;-86
2021/06/09 09:56:59;;;;;;;6.00;4.32;;;43.10;58.80;;;;;;5016995;28;20160;-84
2021/06/09 09:59:26;;;;;;;5.38;4.78;;;43.10;59.00;;;;;;5014780;28;20205;-85
2021/06/09 10:01:54;;;;;;;7.72;5.82;;;42.30;61.10;;;;;;5015227;28;20188;-83
2021/06/09 10:04:34;;;;;;;5.70;4.93;;;43.10;59.70;;;;;;5072812;28;20514;-93
2021/06/09 10:07:01;;;;;;;6.22;4.90;;;43.00;59.20;;;;;;5057134;28;20163;-92
2021/06/09 10:09:27;;;;;;;10.50;5.13;;;43.60;59.40;;;;;;5052745;28;20163;-92
2021/06/09 10:11:58;;;;;;;9.00;4.85;;;44.10;58.90;;;;;;5056490;28;20206;-90
2021/06/09 10:14:34;;;;;;;7.07;5.18;;;43.10;59.70;;;;;;5056439;28;20177;-89
2021/06/09 10:17:07;;;;;;;4.80;3.67;;;43.00;62.10;;;;;;5071166;28;20171;-85
2021/06/09 10:19:46;;;;;;;5.90;5.18;;;43.00;60.00;;;;;;5044336;28;20214;-88
2021/06/09 10:22:23;;;;;;;8.45;4.97;;;44.00;59.20;;;;;;5038083;28;20226;-89
2021/06/09 10:24:56;;;;;;;11.40;5.28;;;44.30;58.30;;;;;;5055357;28;20177;-88
2021/06/09 10:27:53;;;;;;;8.35;5.38;;;43.20;59.30;;;;;;5062111;28;20177;-89
2021/06/09 10:30:26;;;;;;;9.65;5.90;;;42.50;63.20;;;;;;5046635;28;20179;-89
2021/06/09 10:32:56;;;;;;;8.23;5.60;;;41.80;61.10;;;;;;5054129;28;20674;-92
2021/06/09 10:35:28;;;;;;;5.30;4.93;;;42.50;62.70;;;;;;5071890;28;20159;-91
2021/06/09 10:37:54;;;;;;;10.40;6.57;;;43.10;60.00;;;;;;5056655;28;20170;-90
2021/06/09 10:40:25;;;;;;;8.57;6.40;;;44.10;58.10;;;;;;5054983;28;20175;-91
2021/06/09 10:42:53;;;;;;;9.20;5.63;;;43.80;58.60;;;;;;5052817;28;20175;-90
2021/06/09 10:45:22;;;;;;;12.18;7.57;;;43.90;59.10;;;;;;5042721;28;20173;-91
2021/06/09 10:47:47;;;;;;;9.50;6.28;;;44.30;57.80;;;;;;5075405;28;20173;-89
2021/06/09 10:50:14;;;;;;;11.20;7.70;;;43.70;59.00;;;;;;5056284;28;20250;-90
2021/06/09 10:52:41;;;;;;;9.18;6.68;;;43.20;58.60;;;;;;5056628;28;20252;-89
2021/06/09 10:55:09;;;;;;;8.52;6.93;;;42.60;59.30;;;;;;5019804;28;20163;-86
2021/06/09 10:57:35;;;;;;;8.10;7.40;;;42.10;60.80;;;;;;5035911;28;20164;-88
2021/06/09 11:00:01;;;;;;;7.63;6.80;;;42.60;59.90;;;;;;5034938;28;20167;-89
2021/06/09 11:02:27;;;;;;;10.38;7.28;;;43.90;58.90;;;;;;5036013;28;20163;-88
2021/06/09 11:04:56;;;;;;;7.43;6.72;;;44.90;57.60;;;;;;5052509;28;20181;-89
2021/06/09 11:07:46;;;;;;;11.20;7.05;;;45.00;58.90;;;;;;5038668;28;20202;-88
2021/06/09 11:10:13;;;;;;;8.88;8.10;;;44.60;59.20;;;;;;5036054;28;20251;-88
2021/06/09 11:12:49;;;;;;;10.02;8.02;;;44.30;57.80;;;;;;5035965;28;20231;-89
2021/06/09 11:15:16;;;;;;;10.27;8.48;;;43.90;58.70;;;;;;5055150;28;20173;-88
2021/06/09 11:17:53;;;;;;;7.82;7.07;;;44.10;57.40;;;;;;5054970;28;20167;-88
2021/06/09 11:20:21;;;;;;;11.38;6.85;;;44.00;58.60;;;;;;5054430;28;20201;-89
2021/06/09 11:22:51;;;;;;;12.50;8.48;;;44.20;58.20;;;;;;5071320;28;20220;-91
2021/06/09 11:25:25;;;;;;;7.53;6.80;;;44.30;57.10;;;;;;5052578;28;20194;-91
2021/06/09 11:28:13;;;;;;;10.63;8.23;;;44.70;58.50;;;;;;5034228;28;20198;-88
2021/06/09 11:30:43;;;;;;;9.48;8.57;;;44.60;57.00;;;;;;5034969;28;20651;-89
2021/06/09 11:33:27;;;;;;;9.45;8.25;;;45.00;56.80;;;;;;5053839;28;20294;-89
2021/06/09 11:35:57;;;;;;;9.43;8.50;;;45.10;58.60;;;;;;5049504;28;20163;-91
2021/06/09 11:38:28;;;;;;;12.02;9.80;;;44.00;58.40;;;;;;5036295;28;20491;-95
2021/06/09 11:41:26;;;;;;;10.38;9.38;;;42.40;61.20;;;;;;5046877;28;20160;-94
2021/06/09 11:43:57;;;;;;;13.70;10.30;;;42.00;62.00;;;;;;5048570;28;20632;-94
2021/06/09 11:46:30;;;;;;;13.45;10.48;;;41.50;58.70;;;;;;5065317;28;20246;-96
2021/06/09 11:49:07;;;;;;;15.65;9.35;;;40.50;62.20;;;;;;5068602;28;20163;-95
2021/06/09 11:51:57;;;;;;;10.93;10.02;;;41.00;60.80;;;;;;5068752;28;20191;-96
2021/06/09 11:54:36;;;;;;;8.88;7.90;;;41.10;61.30;;;;;;5050313;28;20183;-95
2021/06/09 11:57:05;;;;;;;8.70;7.82;;;41.80;61.10;;;;;;5051063;28;20171;-95
2021/06/09 11:59:37;;;;;;;12.45;11.27;;;41.90;61.60;;;;;;5049173;28;20156;-96
2021/06/09 12:02:09;;;;;;;17.55;11.40;;;41.10;60.30;;;;;;5050875;28;20175;-92
2021/06/09 12:04:38;;;;;;;11.02;10.02;;;40.50;62.60;;;;;;5047205;28;20175;-95
2021/06/09 12:07:08;;;;;;;11.10;9.95;;;39.80;63.50;;;;;;5057635;28;20274;-95
2021/06/09 12:09:37;;;;;;;11.52;9.93;;;39.80;62.50;;;;;;5047557;28;20223;-95
2021/06/09 12:12:12;;;;;;;8.55;7.95;;;39.30;65.30;;;;;;5047170;28;20695;-94
2021/06/09 12:14:44;;;;;;;14.05;9.30;;;38.00;65.70;;;;;;5079111;28;20174;-95
2021/06/09 12:17:10;;;;;;;11.23;10.07;;;38.30;64.40;;;;;;5056339;28;20246;-96
2021/06/09 12:19:36;;;;;;;16.50;10.18;;;37.00;63.80;;;;;;5058641;28;20189;-96
2021/06/09 12:22:06;;;;;;;15.38;8.32;;;35.70;66.80;;;;;;5045397;28;20596;-95
2021/06/09 12:24:33;;;;;;;9.82;9.10;;;34.40;72.60;;;;;;5046024;28;20152;-93
2021/06/09 12:27:03;;;;;;;11.75;9.38;;;33.40;74.60;;;;;;5049358;28;20164;-96
2021/06/09 12:29:31;;;;;;;10.35;9.40;;;32.80;75.80;;;;;;5047663;28;20190;-94
2021/06/09 12:31:58;;;;;;;11.38;8.73;;;32.60;73.90;;;;;;5053571;28;20207;-96
2021/06/09 12:34:29;;;;;;;12.38;9.60;;;32.30;77.60;;;;;;5062676;28;20197;-96
2021/06/09 12:37:04;;;;;;;12.63;9.23;;;32.30;77.20;;;;;;5065168;28;20155;-94
2021/06/09 12:39:30;;;;;;;15.05;8.98;;;32.20;76.30;;;;;;5059646;28;20501;-92
2021/06/09 12:41:56;;;;;;;17.25;8.02;;;32.40;76.60;;;;;;5084665;28;20193;-94
2021/06/09 12:44:24;;;;;;;9.40;8.00;;;32.50;78.00;;;;;;5052414;28;20174;-96
2021/06/09 12:47:01;;;;;;;17.88;10.77;;;32.30;75.90;;;;;;5044342;28;20163;-96
2021/06/09 12:49:32;;;;;;;8.52;7.72;;;31.90;75.90;;;;;;5044568;28;20159;-95
2021/06/09 12:52:15;;;;;;;9.57;8.57;;;31.80;78.80;;;;;;5037212;28;20203;-96
2021/06/09 12:54:52;;;;;;;9.18;7.78;;;31.60;77.10;;;;;;5047704;28;20201;-93
2021/06/09 12:57:32;;;;;;;9.90;6.22;;;31.40;80.00;;;;;;5054155;28;20171;-96
2021/06/09 12:59:57;;;;;;;7.47;6.90;;;31.30;78.20;;;;;;5068267;28;20510;-94
2021/06/09 13:02:23;;;;;;;10.07;7.72;;;31.30;78.30;;;;;;5078265;28;20232;-95
2021/06/09 13:04:51;;;;;;;10.65;6.88;;;31.10;77.60;;;;;;5064441;28;20566;-96